createdAt,value
2019-05-02T00:01:22.096Z,11.90
2019-05-02T00:04:12.407Z,11.80
2019-05-02T00:07:09.350Z,11.80
2019-05-02T00:09:55.845Z,11.80
2019-05-02T00:12:39.723Z,11.70
2019-05-02T00:15:23.272Z,11.70
2019-05-02T00:18:07.658Z,11.70
2019-05-02T00:21:03.155Z,11.70
2019-05-02T00:23:44.100Z,11.60
2019-05-02T00:26:24.500Z,11.60
2019-05-02T00:29:05.812Z,11.50
2019-05-02T00:31:49.267Z,11.50
2019-05-02T00:34:26.451Z,11.40
2019-05-02T00:37:05.345Z,11.40
2019-05-02T00:39:51.525Z,11.40
2019-05-02T00:42:30.678Z,11.30
2019-05-02T00:45:09.630Z,11.20
2019-05-02T00:48:11.830Z,11.10
2019-05-02T00:50:52.521Z,11.10
2019-05-02T00:53:32.479Z,11.00
2019-05-02T00:56:14.364Z,10.90
2019-05-02T00:58:51.978Z,10.90
2019-05-02T01:01:44.092Z,10.80
2019-05-02T01:04:29.702Z,10.80
2019-05-02T01:07:12.461Z,10.80
2019-05-02T01:09:56.128Z,10.70
2019-05-02T01:12:34.018Z,10.70
2019-05-02T01:15:12.888Z,10.70
2019-05-02T01:17:50.227Z,10.60
2019-05-02T01:20:30.510Z,10.70
2019-05-02T01:23:07.845Z,10.60
2019-05-02T01:25:52.913Z,10.60
2019-05-02T01:28:54.195Z,10.60
2019-05-02T01:31:37.444Z,10.60
2019-05-02T01:34:37.994Z,10.50
2019-05-02T01:37:20.852Z,10.50
2019-05-02T01:40:01.907Z,10.50
2019-05-02T01:42:49.118Z,10.50
2019-05-02T01:45:31.302Z,10.50
2019-05-02T01:48:21.447Z,10.50
2019-05-02T01:51:10.114Z,10.50
2019-05-02T01:53:47.842Z,10.40
2019-05-02T01:56:33.073Z,10.30
2019-05-02T01:59:16.052Z,10.30
2019-05-02T02:02:02.448Z,10.30
2019-05-02T02:04:45.217Z,10.20
2019-05-02T02:07:25.451Z,10.10
2019-05-02T02:10:07.311Z,10.10
2019-05-02T02:13:03.317Z,10.00
2019-05-02T02:15:39.382Z,10.00
2019-05-02T02:18:22.369Z,9.90
2019-05-02T02:21:25.518Z,9.90
2019-05-02T02:24:00.476Z,9.80
2019-05-02T02:26:47.723Z,9.80
2019-05-02T02:29:24.895Z,9.80
2019-05-02T02:32:10.011Z,9.80
2019-05-02T02:35:10.214Z,9.80
2019-05-02T02:37:52.061Z,9.80
2019-05-02T02:40:37.103Z,9.70
2019-05-02T02:43:34.116Z,9.70
2019-05-02T02:46:11.626Z,9.70
2019-05-02T02:48:50.725Z,9.70
2019-05-02T02:51:27.797Z,9.60
2019-05-02T02:54:05.815Z,9.60
2019-05-02T02:56:45.843Z,9.50
2019-05-02T02:59:35.403Z,9.50
2019-05-02T03:02:17.108Z,9.40
2019-05-02T03:05:03.562Z,9.40
2019-05-02T03:07:40.623Z,9.40
2019-05-02T03:10:19.415Z,9.30
2019-05-02T03:13:15.041Z,9.30
2019-05-02T03:16:09.144Z,9.20
2019-05-02T03:18:45.895Z,9.20
2019-05-02T03:21:26.009Z,9.20
2019-05-02T03:24:13.965Z,9.20
2019-05-02T03:27:12.391Z,9.10
2019-05-02T03:29:56.897Z,9.10
2019-05-02T03:32:36.858Z,9.10
2019-05-02T03:35:18.732Z,9.00
2019-05-02T03:38:05.606Z,9.00
2019-05-02T03:40:45.371Z,9.00
2019-05-02T03:43:27.734Z,9.00
2019-05-02T03:46:05.428Z,9.00
2019-05-02T03:48:45.365Z,9.00
2019-05-02T03:51:28.021Z,9.10
2019-05-02T03:54:10.239Z,9.00
2019-05-02T03:56:51.175Z,9.10
2019-05-02T03:59:43.797Z,9.10
2019-05-02T04:02:21.998Z,9.20
2019-05-02T04:05:06.128Z,9.20
2019-05-02T04:07:50.766Z,9.30
2019-05-02T04:10:59.333Z,9.30
2019-05-02T04:13:38.039Z,9.40
2019-05-02T04:16:20.923Z,9.50
2019-05-02T04:18:58.464Z,9.50
2019-05-02T04:21:37.540Z,9.60
2019-05-02T04:24:16.073Z,9.70
2019-05-02T04:27:01.573Z,9.80
2019-05-02T04:29:40.847Z,9.90
2019-05-02T04:32:23.516Z,9.90
2019-05-02T04:35:03.333Z,10.10
2019-05-02T04:37:43.778Z,10.20
2019-05-02T04:40:28.173Z,10.30
2019-05-02T04:43:10.567Z,10.40
2019-05-02T04:45:59.996Z,10.50
2019-05-02T04:48:48.696Z,10.70
2019-05-02T04:51:27.473Z,10.80
2019-05-02T04:54:26.270Z,11.00
2019-05-02T04:57:03.799Z,11.10
2019-05-02T04:59:50.634Z,11.20
2019-05-02T05:02:34.278Z,11.30
2019-05-02T05:05:08.234Z,11.30
2019-05-02T05:07:46.539Z,11.40
2019-05-02T05:10:23.911Z,11.50
2019-05-02T05:13:00.968Z,11.60
2019-05-02T05:15:46.547Z,11.60
2019-05-02T05:18:17.646Z,11.70
2019-05-02T05:20:54.713Z,11.80
2019-05-02T05:23:33.415Z,11.80
2019-05-02T05:26:10.394Z,11.90
2019-05-02T05:28:47.667Z,12.00
2019-05-02T05:31:26.409Z,12.10
2019-05-02T05:34:03.913Z,12.20
2019-05-02T05:36:44.031Z,12.10
2019-05-02T05:39:21.074Z,12.10
2019-05-02T05:41:58.098Z,12.10
2019-05-02T05:44:35.127Z,12.10
2019-05-02T05:47:16.916Z,12.00
2019-05-02T05:50:01.040Z,12.10
2019-05-02T05:52:42.257Z,12.10
2019-05-02T05:55:20.567Z,12.20
2019-05-02T05:58:01.798Z,12.20
2019-05-02T06:00:34.434Z,12.20
2019-05-02T06:03:14.168Z,12.30
2019-05-02T06:05:50.123Z,12.30
2019-05-02T06:08:28.920Z,12.30
2019-05-02T06:11:14.817Z,12.40
2019-05-02T06:13:50.763Z,12.40
2019-05-02T06:16:27.893Z,12.40
2019-05-02T06:19:05.197Z,12.50
2019-05-02T06:21:45.069Z,12.50
2019-05-02T06:24:20.853Z,12.60
2019-05-02T06:26:57.823Z,12.70
2019-05-02T06:29:34.928Z,12.80
2019-05-02T06:32:14.032Z,12.90
2019-05-02T06:34:50.571Z,12.90
2019-05-02T06:37:36.754Z,12.80
2019-05-02T06:40:14.264Z,12.80
2019-05-02T06:42:51.258Z,12.90
2019-05-02T06:45:32.195Z,13.00
2019-05-02T06:48:06.910Z,13.10
2019-05-02T06:50:43.995Z,13.00
2019-05-02T06:53:20.987Z,13.10
2019-05-02T06:55:58.213Z,13.20
2019-05-02T06:58:37.060Z,13.40
2019-05-02T07:01:16.113Z,13.40
2019-05-02T07:03:53.319Z,13.60
2019-05-02T07:06:35.214Z,13.70
2019-05-02T07:09:10.512Z,13.80
2019-05-02T07:11:57.026Z,14.10
2019-05-02T07:14:26.486Z,14.50
2019-05-02T07:17:14.176Z,14.90
2019-05-02T07:19:52.876Z,15.20
2019-05-02T07:22:33.111Z,15.20
2019-05-02T07:25:08.983Z,15.50
2019-05-02T07:27:48.456Z,15.60
2019-05-02T07:30:29.878Z,15.60
2019-05-02T07:33:05.862Z,15.90
2019-05-02T07:35:42.934Z,16.20
2019-05-02T07:38:25.791Z,16.30
2019-05-02T07:41:01.570Z,16.60
2019-05-02T07:43:38.587Z,17.00
2019-05-02T07:46:20.885Z,16.70
2019-05-02T07:48:56.584Z,16.40
2019-05-02T07:51:34.169Z,16.20
2019-05-02T07:54:11.748Z,16.20
2019-05-02T07:56:53.113Z,16.30
2019-05-02T07:59:27.474Z,16.50
2019-05-02T08:02:05.154Z,16.60
2019-05-02T08:04:44.153Z,16.90
2019-05-02T08:07:22.514Z,16.80
2019-05-02T08:10:00.436Z,16.90
2019-05-02T08:12:37.473Z,17.10
2019-05-02T08:15:15.307Z,17.20
2019-05-02T08:17:53.779Z,17.30
2019-05-02T08:20:31.608Z,17.60
2019-05-02T08:23:14.786Z,17.40
2019-05-02T08:25:52.347Z,17.20
2019-05-02T08:28:40.628Z,17.30
2019-05-02T08:31:19.006Z,17.30
2019-05-02T08:33:57.529Z,17.30
2019-05-02T08:36:35.119Z,17.40
2019-05-02T08:39:14.331Z,17.40
2019-05-02T08:41:56.249Z,17.40
2019-05-02T08:44:30.555Z,17.50
2019-05-02T08:47:18.432Z,17.60
2019-05-02T08:49:49.417Z,17.90
2019-05-02T08:52:26.649Z,18.00
2019-05-02T08:55:09.866Z,17.80
2019-05-02T08:57:45.679Z,17.60
2019-05-02T09:00:22.804Z,17.10
2019-05-02T09:03:02.622Z,16.80
2019-05-02T09:05:45.395Z,16.80
2019-05-02T09:08:17.715Z,16.70
2019-05-02T09:11:01.857Z,16.60
2019-05-02T09:13:39.453Z,16.60
2019-05-02T09:16:16.514Z,16.30
2019-05-02T09:18:54.399Z,16.10
2019-05-02T09:21:35.877Z,16.00
2019-05-02T09:24:13.538Z,15.90
2019-05-02T09:26:51.932Z,16.00
2019-05-02T09:29:32.722Z,16.00
2019-05-02T09:32:12.559Z,16.00
2019-05-02T09:34:51.695Z,16.10
2019-05-02T09:37:28.355Z,16.20
2019-05-02T09:40:06.915Z,16.30
2019-05-02T09:42:47.559Z,16.30
2019-05-02T09:45:27.906Z,16.30
2019-05-02T09:48:07.750Z,16.40
2019-05-02T09:50:46.622Z,16.50
2019-05-02T09:53:25.471Z,16.50
2019-05-02T09:56:02.362Z,16.50
2019-05-02T09:58:39.432Z,16.50
2019-05-02T10:01:22.400Z,16.40
2019-05-02T10:04:03.758Z,16.30
2019-05-02T10:06:42.941Z,16.40
2019-05-02T10:09:24.373Z,16.50
2019-05-02T10:12:02.068Z,16.40
2019-05-02T10:14:39.211Z,16.30
2019-05-02T10:17:18.524Z,16.20
2019-05-02T10:19:57.161Z,16.20
2019-05-02T10:22:39.316Z,16.30
2019-05-02T10:25:12.219Z,16.40
2019-05-02T10:27:49.266Z,16.40
2019-05-02T10:30:28.012Z,16.50
2019-05-02T10:33:07.899Z,16.50
2019-05-02T10:35:46.518Z,16.70
2019-05-02T10:38:28.883Z,16.70
2019-05-02T10:41:05.922Z,16.80
2019-05-02T10:43:46.882Z,16.90
2019-05-02T10:46:27.760Z,16.90
2019-05-02T10:49:18.588Z,16.80
2019-05-02T10:51:55.643Z,16.90
2019-05-02T10:54:36.126Z,16.90
2019-05-02T10:57:12.598Z,17.00
2019-05-02T11:00:22.077Z,17.10
2019-05-02T11:03:04.145Z,17.10
2019-05-02T11:05:43.904Z,17.10
2019-05-02T11:08:22.477Z,17.10
2019-05-02T11:10:59.555Z,17.20
2019-05-02T11:13:38.275Z,17.20
2019-05-02T11:16:23.014Z,17.10
2019-05-02T11:19:07.738Z,17.10
2019-05-02T11:21:55.436Z,17.10
2019-05-02T11:24:23.398Z,17.20
2019-05-02T11:27:02.101Z,17.30
2019-05-02T11:29:39.269Z,17.50
2019-05-02T11:32:19.231Z,17.60
2019-05-02T11:34:57.902Z,17.60
2019-05-02T11:37:34.916Z,17.70
2019-05-02T11:40:12.827Z,17.80
2019-05-02T11:42:52.058Z,17.80
2019-05-02T11:45:29.247Z,17.80
2019-05-02T11:48:09.192Z,17.70
2019-05-02T11:50:44.911Z,17.80
2019-05-02T11:53:28.878Z,17.80
2019-05-02T11:56:05.702Z,17.70
2019-05-02T11:58:48.052Z,17.50
2019-05-02T12:01:35.778Z,17.50
2019-05-02T12:04:13.041Z,17.40
2019-05-02T12:06:58.951Z,17.40
2019-05-02T12:09:28.430Z,17.30
2019-05-02T12:12:08.739Z,17.30
2019-05-02T12:14:45.879Z,17.20
2019-05-02T12:17:22.881Z,17.30
2019-05-02T12:20:01.923Z,17.30
2019-05-02T12:22:38.535Z,17.50
2019-05-02T12:25:15.886Z,17.50
2019-05-02T12:27:52.911Z,17.70
2019-05-02T12:30:34.175Z,17.70
2019-05-02T12:33:09.557Z,17.90
2019-05-02T12:35:46.485Z,17.90
2019-05-02T12:38:23.508Z,17.90
2019-05-02T12:41:02.562Z,18.00
2019-05-02T12:43:39.214Z,17.90
2019-05-02T12:46:16.243Z,17.90
2019-05-02T12:48:53.254Z,17.80
2019-05-02T12:51:32.547Z,17.70
2019-05-02T12:54:09.575Z,17.70
2019-05-02T12:56:48.000Z,17.80
2019-05-02T12:59:25.413Z,17.90
2019-05-02T13:02:04.069Z,18.00
2019-05-02T13:04:41.886Z,17.90
2019-05-02T13:07:20.239Z,17.60
2019-05-02T13:09:57.316Z,17.70
2019-05-02T13:12:38.931Z,17.80
2019-05-02T13:15:16.037Z,18.00
2019-05-02T13:17:53.621Z,17.90
2019-05-02T13:20:34.784Z,17.80
2019-05-02T13:23:34.125Z,17.90
2019-05-02T13:26:18.241Z,17.90
2019-05-02T13:28:47.094Z,17.90
2019-05-02T13:31:25.801Z,17.90
2019-05-02T13:34:22.115Z,17.90
2019-05-02T13:37:02.629Z,17.80
2019-05-02T13:39:42.354Z,17.90
2019-05-02T13:42:19.384Z,18.00
2019-05-02T13:44:58.638Z,17.90
2019-05-02T13:47:35.674Z,17.90
2019-05-02T13:50:13.311Z,17.90
2019-05-02T13:52:52.907Z,17.80
2019-05-02T13:55:34.152Z,17.60
2019-05-02T13:58:11.812Z,17.70
2019-05-02T14:00:49.953Z,17.70
2019-05-02T14:03:27.110Z,17.70
2019-05-02T14:06:05.065Z,17.90
2019-05-02T14:08:47.695Z,18.00
2019-05-02T14:11:43.500Z,18.00
2019-05-02T14:14:22.670Z,18.00
2019-05-02T14:16:59.295Z,18.00
2019-05-02T14:19:36.310Z,18.00
2019-05-02T14:22:13.952Z,18.10
2019-05-02T14:24:51.934Z,18.10
2019-05-02T14:27:29.064Z,18.10
2019-05-02T14:30:07.842Z,18.10
2019-05-02T14:32:44.902Z,18.10
2019-05-02T14:35:29.086Z,18.10
2019-05-02T14:38:10.019Z,18.00
2019-05-02T14:40:54.431Z,17.90
2019-05-02T14:43:53.162Z,17.80
2019-05-02T14:46:37.376Z,17.80
2019-05-02T14:49:09.137Z,17.90
2019-05-02T14:51:46.166Z,17.80
2019-05-02T14:54:23.253Z,17.70
2019-05-02T14:57:04.576Z,17.70
2019-05-02T14:59:44.001Z,17.70
2019-05-02T15:02:23.257Z,17.60
2019-05-02T15:05:02.027Z,17.60
2019-05-02T15:07:39.210Z,17.70
2019-05-02T15:10:16.787Z,17.60
2019-05-02T15:12:59.738Z,17.60
2019-05-02T15:15:38.685Z,17.60
2019-05-02T15:18:13.467Z,17.50
2019-05-02T15:20:52.052Z,17.50
2019-05-02T15:23:28.998Z,17.60
2019-05-02T15:26:05.981Z,17.60
2019-05-02T15:28:43.045Z,17.70
2019-05-02T15:31:29.148Z,17.70
2019-05-02T15:34:07.743Z,17.60
2019-05-02T15:36:45.953Z,17.60
2019-05-02T15:42:01.979Z,17.50
2019-05-02T15:44:39.081Z,17.50
2019-05-02T15:47:16.126Z,17.60
2019-05-02T15:49:53.142Z,17.60
2019-05-02T15:52:32.626Z,17.60
2019-05-02T15:55:11.562Z,17.50
2019-05-02T15:57:49.420Z,17.40
2019-05-02T16:00:34.059Z,17.40
2019-05-02T16:03:12.222Z,17.40
2019-05-02T16:05:49.330Z,17.50
2019-05-02T16:08:27.993Z,17.50
2019-05-02T16:11:08.839Z,17.60
2019-05-02T16:13:47.103Z,17.60
2019-05-02T16:16:22.350Z,17.60
2019-05-02T16:18:59.363Z,17.60
2019-05-02T16:21:42.698Z,17.70
2019-05-02T16:27:04.651Z,17.70
2019-05-02T16:29:41.825Z,17.60
2019-05-02T16:32:31.050Z,17.50
2019-05-02T16:35:15.301Z,17.50
2019-05-02T16:37:51.620Z,17.40
2019-05-02T16:40:31.897Z,17.20
2019-05-02T16:43:08.930Z,17.00
2019-05-02T16:45:45.986Z,16.90
2019-05-02T16:48:23.892Z,16.90
2019-05-02T16:51:02.177Z,16.80
2019-05-02T16:53:39.289Z,16.80
2019-05-02T16:56:16.385Z,16.70
2019-05-02T16:58:53.430Z,16.70
2019-05-02T17:01:30.449Z,16.60
2019-05-02T17:04:07.480Z,16.60
2019-05-02T17:06:49.486Z,16.60
2019-05-02T17:09:28.836Z,16.60
2019-05-02T17:12:11.948Z,16.70
2019-05-02T17:14:53.428Z,16.70
2019-05-02T17:17:33.260Z,16.70
2019-05-02T17:20:15.022Z,16.80
2019-05-02T17:22:50.163Z,16.80
2019-05-02T17:25:24.931Z,16.80
2019-05-02T17:28:07.026Z,16.80
2019-05-02T17:30:42.912Z,16.80
2019-05-02T17:33:19.252Z,16.70
2019-05-02T17:35:56.267Z,16.60
2019-05-02T17:38:33.270Z,16.50
2019-05-02T17:41:11.841Z,16.40
2019-05-02T17:43:49.113Z,16.30
2019-05-02T17:46:26.173Z,16.20
2019-05-02T17:49:11.930Z,16.10
2019-05-02T17:52:19.693Z,16.00
2019-05-02T17:54:52.845Z,15.90
2019-05-02T17:57:33.439Z,15.80
2019-05-02T18:00:13.096Z,15.70
2019-05-02T18:02:51.801Z,15.60
2019-05-02T18:05:32.109Z,15.50
2019-05-02T18:08:10.955Z,15.50
2019-05-02T18:10:44.805Z,15.40
2019-05-02T18:13:22.947Z,15.30
2019-05-02T18:16:07.776Z,15.20
2019-05-02T18:18:46.748Z,15.10
2019-05-02T18:21:27.003Z,15.10
2019-05-02T18:24:06.037Z,15.00
2019-05-02T18:26:41.233Z,14.90
2019-05-02T18:29:18.327Z,14.80
2019-05-02T18:31:55.329Z,14.70
2019-05-02T18:34:32.387Z,14.60
2019-05-02T18:37:09.387Z,14.50
2019-05-02T18:39:53.347Z,14.40
2019-05-02T18:42:25.596Z,14.40
2019-05-02T18:45:03.629Z,14.20
2019-05-02T18:47:42.242Z,14.20
2019-05-02T18:50:36.773Z,14.00
2019-05-02T18:53:13.961Z,13.90
2019-05-02T18:55:51.906Z,13.90
2019-05-02T18:58:41.561Z,13.70
2019-05-02T19:01:17.845Z,13.70
2019-05-02T19:03:56.324Z,13.60
2019-05-02T19:06:36.165Z,13.50
2019-05-02T19:09:12.867Z,13.50
2019-05-02T19:12:05.908Z,13.40
2019-05-02T19:14:39.529Z,13.40
2019-05-02T19:17:16.583Z,13.40
2019-05-02T19:20:29.990Z,13.40
2019-05-02T19:23:08.132Z,13.40
2019-05-02T19:25:45.171Z,13.30
2019-05-02T19:28:40.326Z,13.30
2019-05-02T19:31:17.567Z,13.30
2019-05-02T19:33:54.590Z,13.30
2019-05-02T19:36:37.592Z,13.20
2019-05-02T19:39:14.655Z,13.20
2019-05-02T19:41:52.062Z,13.20
2019-05-02T19:44:34.118Z,13.10
2019-05-02T19:47:17.491Z,13.10
2019-05-02T19:49:57.660Z,13.00
2019-05-02T19:52:39.318Z,12.90
2019-05-02T19:55:19.831Z,12.90
2019-05-02T19:57:52.365Z,12.80
2019-05-02T20:00:29.466Z,12.70
2019-05-02T20:03:06.506Z,12.60
2019-05-02T20:05:43.550Z,12.50
2019-05-02T20:08:24.371Z,12.40
2019-05-02T20:10:59.782Z,12.30
2019-05-02T20:13:36.842Z,12.30
2019-05-02T20:16:24.984Z,12.20
2019-05-02T20:19:02.039Z,12.10
2019-05-02T20:21:43.401Z,12.00
2019-05-02T20:24:22.532Z,12.00
2019-05-02T20:27:02.923Z,11.90
2019-05-02T20:29:40.266Z,11.90
2019-05-02T20:32:17.656Z,11.80
2019-05-02T20:34:54.878Z,11.70
2019-05-02T20:37:32.456Z,11.60
2019-05-02T20:40:12.975Z,11.50
2019-05-02T20:42:50.045Z,11.40
2019-05-02T20:45:27.049Z,11.40
2019-05-02T20:48:04.292Z,11.30
2019-05-02T20:50:42.412Z,11.20
2019-05-02T20:53:30.724Z,11.20
2019-05-02T20:55:58.340Z,11.20
2019-05-02T20:58:35.426Z,11.10
2019-05-02T21:01:14.159Z,11.10
2019-05-02T21:03:56.561Z,11.10
2019-05-02T21:06:41.353Z,11.00
2019-05-02T21:09:32.397Z,11.00
2019-05-02T21:12:14.415Z,10.90
2019-05-02T21:14:56.311Z,10.80
2019-05-02T21:17:42.156Z,10.70
2019-05-02T21:20:26.466Z,10.60
2019-05-02T21:23:09.749Z,10.50
2019-05-02T21:25:52.363Z,10.40
2019-05-02T21:28:36.337Z,10.40
2019-05-02T21:31:22.747Z,10.30
2019-05-02T21:34:03.228Z,10.30
2019-05-02T21:36:51.736Z,10.20
2019-05-02T21:39:31.915Z,10.20
2019-05-02T21:42:13.915Z,10.10
2019-05-02T21:45:13.192Z,10.00
2019-05-02T21:47:56.358Z,9.80
2019-05-02T21:50:38.195Z,9.70
2019-05-02T21:53:23.936Z,9.70
2019-05-02T21:56:17.278Z,9.60
2019-05-02T21:59:12.103Z,9.50
2019-05-02T22:01:52.511Z,9.40
2019-05-02T22:04:38.858Z,9.40
2019-05-02T22:07:21.769Z,9.40
2019-05-02T22:10:03.069Z,9.30
2019-05-02T22:12:51.643Z,9.30
2019-05-02T22:15:38.748Z,9.30
2019-05-02T22:18:12.809Z,9.20
2019-05-02T22:20:49.949Z,9.10
2019-05-02T22:23:28.386Z,9.10
2019-05-02T22:26:05.518Z,9.00
2019-05-02T22:28:53.789Z,9.00
2019-05-02T22:31:47.134Z,8.90
2019-05-02T22:34:34.978Z,8.90
2019-05-02T22:37:30.320Z,8.80
2019-05-02T22:40:48.667Z,8.80
2019-05-02T22:43:34.127Z,8.70
2019-05-02T22:46:24.452Z,8.60
2019-05-02T22:49:07.674Z,8.60
2019-05-02T22:51:52.338Z,8.50
2019-05-02T22:54:34.663Z,8.50
2019-05-02T22:57:18.950Z,8.40
2019-05-02T23:00:01.788Z,8.40
2019-05-02T23:02:38.582Z,8.40
2019-05-02T23:05:20.643Z,8.30
2019-05-02T23:08:04.329Z,8.30
2019-05-02T23:10:46.090Z,8.20
2019-05-02T23:13:25.911Z,8.10
2019-05-02T23:16:06.655Z,8.10
2019-05-02T23:18:52.199Z,8.10
2019-05-02T23:21:32.473Z,8.10
2019-05-02T23:24:14.541Z,8.00
2019-05-02T23:27:15.459Z,8.00
2019-05-02T23:30:03.266Z,8.00
2019-05-02T23:32:51.886Z,8.00
2019-05-02T23:35:34.319Z,7.90
2019-05-02T23:41:24.393Z,7.80
2019-05-02T23:44:26.728Z,7.70
2019-05-02T23:47:15.519Z,7.70
2019-05-02T23:49:54.219Z,7.60
2019-05-02T23:52:31.619Z,7.60
2019-05-02T23:55:12.180Z,7.50
2019-05-02T23:57:57.028Z,7.50
